OIMC  Sarakhs Airport

Add Bookmark

Sarakhs, Iran

Status IATA
Operational CKT
Latitude Longitude
36° 30' 4" N 61° 3' 53" E
36.501202 61.064899
Local (DST + 5) UTC (GMT + 4)
Sep 22, 2014 11:45 Sep 22, 2014 20:15
Sunrise-Sunset Local UTC
Begin Civil Twilight 04:46 01:16
Sunrise 05:12 01:42
Sunset 05:24 13:54
End Civil Twilight 05:50 14:20

Current Weather

METAR Observed VFR
OIMC 221700Z 34006KT CAVOK 24/01 Q1009 Mon, Sep 22, 2014 @ 17:00 UTC
(3 Hours, 15 Minutes ago)
Visual Flight Rules
Wind Visibility Clouds Conditions
340° at 6 knots (11 kph) 10 km or more
  • Clear skies
  • No significant weather
Temperatures Readings Precipitation
Current Temp 24°C (75°F)
Dewpoint 1°C (34°F)
Humidity 22%
Altimeter 29.79"Hg
Sea Level Pressure 1009mb
Field Elevation 944.88'
None Recorded

Additional weather within a 185.2km radius of OIMC

Map ICAO Location
OIMM 130.8km W (257°)
UTAM 144.5km N (030°)

24 Hour Weather History

Loading
-

24 Hour Weather Graphs

Loading
-

CheckWX.com is intended as a tool to help pilots better visualize weather data. It is not intended as a substitute for an official weather briefing obtained from a Flight Service Station. CheckWX.com does not meet the FAA requirements for an official pre-flight weather briefing. Therefore, it's important that pilots still call and obtain an official FSS pre-flight weather briefing.